sensor_id;sensor_type;location;lat;lon;timestamp;temperature;humidity
11079;DHT22;5592;49.234;7.268;2022-11-25T00:00:53;1.40;99.90
11079;DHT22;5592;49.234;7.268;2022-11-25T00:03:22;1.40;99.90
11079;DHT22;5592;49.234;7.268;2022-11-25T00:05:47;1.40;99.90
11079;DHT22;5592;49.234;7.268;2022-11-25T00:08:13;1.50;99.90
11079;DHT22;5592;49.234;7.268;2022-11-25T00:10:38;1.40;99.90
11079;DHT22;5592;49.234;7.268;2022-11-25T00:13:04;1.40;99.90
11079;DHT22;5592;49.234;7.268;2022-11-25T00:15:30;1.40;99.90
11079;DHT22;5592;49.234;7.268;2022-11-25T00:17:55;1.40;99.90
11079;DHT22;5592;49.234;7.268;2022-11-25T00:20:21;1.50;99.90
11079;DHT22;5592;49.234;7.268;2022-11-25T00:22:47;1.50;99.90
11079;DHT22;5592;49.234;7.268;2022-11-25T00:25:15;1.50;99.90
11079;DHT22;5592;49.234;7.268;2022-11-25T00:27:40;1.50;99.90
11079;DHT22;5592;49.234;7.268;2022-11-25T00:30:06;1.40;99.90
11079;DHT22;5592;49.234;7.268;2022-11-25T00:32:32;1.40;99.90
11079;DHT22;5592;49.234;7.268;2022-11-25T00:34:58;1.40;99.90
11079;DHT22;5592;49.234;7.268;2022-11-25T00:37:23;1.30;99.90
11079;DHT22;5592;49.234;7.268;2022-11-25T00:39:49;1.30;99.90
11079;DHT22;5592;49.234;7.268;2022-11-25T00:42:17;1.30;99.90
11079;DHT22;5592;49.234;7.268;2022-11-25T00:45:03;1.30;99.90
11079;DHT22;5592;49.234;7.268;2022-11-25T00:47:29;1.30;99.90
11079;DHT22;5592;49.234;7.268;2022-11-25T00:49:54;1.30;99.90
11079;DHT22;5592;49.234;7.268;2022-11-25T00:52:23;1.30;99.90
11079;DHT22;5592;49.234;7.268;2022-11-25T00:54:49;1.30;99.90
11079;DHT22;5592;49.234;7.268;2022-11-25T00:57:17;1.30;99.90
11079;DHT22;5592;49.234;7.268;2022-11-25T00:59:43;1.30;99.90
11079;DHT22;5592;49.234;7.268;2022-11-25T01:02:11;1.30;99.90
11079;DHT22;5592;49.234;7.268;2022-11-25T01:04:37;1.30;99.90
11079;DHT22;5592;49.234;7.268;2022-11-25T01:07:03;1.30;99.90
11079;DHT22;5592;49.234;7.268;2022-11-25T01:09:29;1.20;99.90
11079;DHT22;5592;49.234;7.268;2022-11-25T01:11:55;1.20;99.90
11079;DHT22;5592;49.234;7.268;2022-11-25T01:14:21;1.20;99.90
11079;DHT22;5592;49.234;7.268;2022-11-25T01:16:48;1.20;99.90
11079;DHT22;5592;49.234;7.268;2022-11-25T01:19:15;1.30;99.90
11079;DHT22;5592;49.234;7.268;2022-11-25T01:21:41;1.30;99.90
11079;DHT22;5592;49.234;7.268;2022-11-25T01:24:08;1.40;99.90
11079;DHT22;5592;49.234;7.268;2022-11-25T01:26:35;1.50;99.90
11079;DHT22;5592;49.234;7.268;2022-11-25T01:29:03;1.60;99.90
11079;DHT22;5592;49.234;7.268;2022-11-25T01:31:32;1.60;99.90
11079;DHT22;5592;49.234;7.268;2022-11-25T01:34:09;1.60;99.90
11079;DHT22;5592;49.234;7.268;2022-11-25T01:36:35;1.60;99.90
11079;DHT22;5592;49.234;7.268;2022-11-25T01:39:01;1.70;99.90
11079;DHT22;5592;49.234;7.268;2022-11-25T01:41:29;1.70;99.90
11079;DHT22;5592;49.234;7.268;2022-11-25T01:44:22;1.70;99.90
11079;DHT22;5592;49.234;7.268;2022-11-25T01:49:40;1.80;99.90
11079;DHT22;5592;49.234;7.268;2022-11-25T01:52:09;1.90;99.90
11079;DHT22;5592;49.234;7.268;2022-11-25T01:54:41;1.90;99.90
11079;DHT22;5592;49.234;7.268;2022-11-25T01:57:16;2.00;99.90
11079;DHT22;5592;49.234;7.268;2022-11-25T01:59:47;2.00;99.90
11079;DHT22;5592;49.234;7.268;2022-11-25T02:02:14;2.10;99.90
11079;DHT22;5592;49.234;7.268;2022-11-25T02:04:41;2.20;99.90
11079;DHT22;5592;49.234;7.268;2022-11-25T02:07:12;2.30;99.90
11079;DHT22;5592;49.234;7.268;2022-11-25T02:09:41;2.40;99.90
11079;DHT22;5592;49.234;7.268;2022-11-25T02:12:08;2.50;99.90
11079;DHT22;5592;49.234;7.268;2022-11-25T02:14:34;2.50;99.90
11079;DHT22;5592;49.234;7.268;2022-11-25T02:17:03;2.40;99.90
11079;DHT22;5592;49.234;7.268;2022-11-25T02:19:57;2.40;99.90
11079;DHT22;5592;49.234;7.268;2022-11-25T02:22:32;2.40;99.90
11079;DHT22;5592;49.234;7.268;2022-11-25T02:25:16;2.50;99.90
11079;DHT22;5592;49.234;7.268;2022-11-25T02:27:43;2.50;99.90
11079;DHT22;5592;49.234;7.268;2022-11-25T02:30:13;2.40;99.90
11079;DHT22;5592;49.234;7.268;2022-11-25T02:32:45;2.40;99.90
11079;DHT22;5592;49.234;7.268;2022-11-25T02:35:32;2.50;99.90
11079;DHT22;5592;49.234;7.268;2022-11-25T02:38:12;2.50;99.90
11079;DHT22;5592;49.234;7.268;2022-11-25T02:40:52;2.60;99.90
11079;DHT22;5592;49.234;7.268;2022-11-25T02:43:20;2.60;99.90
11079;DHT22;5592;49.234;7.268;2022-11-25T02:45:48;2.70;99.90
11079;DHT22;5592;49.234;7.268;2022-11-25T02:48:15;2.80;99.90
11079;DHT22;5592;49.234;7.268;2022-11-25T02:50:41;2.80;99.90
11079;DHT22;5592;49.234;7.268;2022-11-25T02:53:07;2.80;99.90
11079;DHT22;5592;49.234;7.268;2022-11-25T02:55:33;2.90;99.90
11079;DHT22;5592;49.234;7.268;2022-11-25T02:57:58;2.90;99.90
11079;DHT22;5592;49.234;7.268;2022-11-25T03:00:24;2.90;99.90
11079;DHT22;5592;49.234;7.268;2022-11-25T03:02:52;2.90;99.90
11079;DHT22;5592;49.234;7.268;2022-11-25T03:05:19;2.90;99.90
11079;DHT22;5592;49.234;7.268;2022-11-25T03:07:48;2.80;99.90
11079;DHT22;5592;49.234;7.268;2022-11-25T03:10:14;2.80;99.90
11079;DHT22;5592;49.234;7.268;2022-11-25T03:12:42;2.80;99.90
11079;DHT22;5592;49.234;7.268;2022-11-25T03:15:08;2.80;99.90
11079;DHT22;5592;49.234;7.268;2022-11-25T03:17:34;2.80;99.90
11079;DHT22;5592;49.234;7.268;2022-11-25T03:19:59;2.90;99.90
11079;DHT22;5592;49.234;7.268;2022-11-25T03:22:25;2.90;99.90
11079;DHT22;5592;49.234;7.268;2022-11-25T03:24:51;2.90;99.90
11079;DHT22;5592;49.234;7.268;2022-11-25T03:27:16;2.90;99.90
11079;DHT22;5592;49.234;7.268;2022-11-25T03:29:42;2.80;99.90
11079;DHT22;5592;49.234;7.268;2022-11-25T03:32:08;2.70;99.90
11079;DHT22;5592;49.234;7.268;2022-11-25T03:34:33;2.60;99.90
11079;DHT22;5592;49.234;7.268;2022-11-25T03:36:59;2.40;99.90
11079;DHT22;5592;49.234;7.268;2022-11-25T03:39:24;2.40;99.90
11079;DHT22;5592;49.234;7.268;2022-11-25T03:41:50;2.40;99.90
11079;DHT22;5592;49.234;7.268;2022-11-25T03:44:16;2.40;99.90
11079;DHT22;5592;49.234;7.268;2022-11-25T03:46:44;2.50;99.90
11079;DHT22;5592;49.234;7.268;2022-11-25T03:49:10;2.60;99.90
11079;DHT22;5592;49.234;7.268;2022-11-25T03:51:35;2.70;99.90
11079;DHT22;5592;49.234;7.268;2022-11-25T03:54:01;2.70;99.90
11079;DHT22;5592;49.234;7.268;2022-11-25T03:56:29;2.70;99.90
11079;DHT22;5592;49.234;7.268;2022-11-25T03:58:55;2.70;99.90
11079;DHT22;5592;49.234;7.268;2022-11-25T04:01:20;2.80;99.90
11079;DHT22;5592;49.234;7.268;2022-11-25T04:03:46;2.80;99.90
11079;DHT22;5592;49.234;7.268;2022-11-25T04:06:12;2.80;99.90
11079;DHT22;5592;49.234;7.268;2022-11-25T04:08:37;2.80;99.90
11079;DHT22;5592;49.234;7.268;2022-11-25T04:11:03;2.80;99.90
11079;DHT22;5592;49.234;7.268;2022-11-25T04:13:28;2.90;99.90
11079;DHT22;5592;49.234;7.268;2022-11-25T04:15:54;2.90;99.90
11079;DHT22;5592;49.234;7.268;2022-11-25T04:18:20;3.00;99.90
11079;DHT22;5592;49.234;7.268;2022-11-25T04:20:46;3.10;99.90
11079;DHT22;5592;49.234;7.268;2022-11-25T04:23:12;3.10;99.90
11079;DHT22;5592;49.234;7.268;2022-11-25T04:25:38;3.20;99.90
11079;DHT22;5592;49.234;7.268;2022-11-25T04:28:04;3.30;99.90
11079;DHT22;5592;49.234;7.268;2022-11-25T04:30:31;3.30;99.90
11079;DHT22;5592;49.234;7.268;2022-11-25T04:32:56;3.40;99.90
11079;DHT22;5592;49.234;7.268;2022-11-25T04:35:22;3.50;99.90
11079;DHT22;5592;49.234;7.268;2022-11-25T04:37:48;3.50;99.90
11079;DHT22;5592;49.234;7.268;2022-11-25T04:40:14;3.60;99.90
11079;DHT22;5592;49.234;7.268;2022-11-25T04:42:39;3.70;99.90
11079;DHT22;5592;49.234;7.268;2022-11-25T04:45:14;3.70;99.90
11079;DHT22;5592;49.234;7.268;2022-11-25T04:47:40;3.70;99.90
11079;DHT22;5592;49.234;7.268;2022-11-25T04:50:10;3.70;99.90
11079;DHT22;5592;49.234;7.268;2022-11-25T04:52:44;3.80;99.90
11079;DHT22;5592;49.234;7.268;2022-11-25T04:55:10;3.80;99.90
11079;DHT22;5592;49.234;7.268;2022-11-25T04:57:36;3.90;99.90
11079;DHT22;5592;49.234;7.268;2022-11-25T05:00:02;3.90;99.90
11079;DHT22;5592;49.234;7.268;2022-11-25T05:02:28;4.00;99.90
11079;DHT22;5592;49.234;7.268;2022-11-25T05:04:55;4.00;99.90
11079;DHT22;5592;49.234;7.268;2022-11-25T05:07:23;4.00;99.90
11079;DHT22;5592;49.234;7.268;2022-11-25T05:09:49;4.00;99.90
11079;DHT22;5592;49.234;7.268;2022-11-25T05:12:21;4.00;99.90
11079;DHT22;5592;49.234;7.268;2022-11-25T05:14:48;4.10;99.90
11079;DHT22;5592;49.234;7.268;2022-11-25T05:17:19;4.10;99.90
11079;DHT22;5592;49.234;7.268;2022-11-25T05:19:45;4.10;99.90
11079;DHT22;5592;49.234;7.268;2022-11-25T05:22:17;4.10;99.90
11079;DHT22;5592;49.234;7.268;2022-11-25T05:24:43;4.10;99.90
11079;DHT22;5592;49.234;7.268;2022-11-25T05:27:10;4.10;99.90
11079;DHT22;5592;49.234;7.268;2022-11-25T05:29:36;4.10;99.90
11079;DHT22;5592;49.234;7.268;2022-11-25T05:32:02;4.10;99.90
11079;DHT22;5592;49.234;7.268;2022-11-25T05:34:28;4.10;99.90
11079;DHT22;5592;49.234;7.268;2022-11-25T05:36:54;4.10;99.90
11079;DHT22;5592;49.234;7.268;2022-11-25T05:39:20;4.10;99.90
11079;DHT22;5592;49.234;7.268;2022-11-25T05:41:46;4.10;99.90
11079;DHT22;5592;49.234;7.268;2022-11-25T05:44:11;4.20;99.90
11079;DHT22;5592;49.234;7.268;2022-11-25T05:46:37;4.20;99.90
11079;DHT22;5592;49.234;7.268;2022-11-25T05:49:03;4.30;99.90
11079;DHT22;5592;49.234;7.268;2022-11-25T05:51:29;4.30;99.90
11079;DHT22;5592;49.234;7.268;2022-11-25T05:53:56;4.30;99.90
11079;DHT22;5592;49.234;7.268;2022-11-25T05:56:22;4.40;99.90
11079;DHT22;5592;49.234;7.268;2022-11-25T05:58:48;4.40;99.90
11079;DHT22;5592;49.234;7.268;2022-11-25T06:01:15;4.40;99.90
11079;DHT22;5592;49.234;7.268;2022-11-25T06:03:41;4.50;99.90
11079;DHT22;5592;49.234;7.268;2022-11-25T06:06:08;4.60;99.90
11079;DHT22;5592;49.234;7.268;2022-11-25T06:08:37;4.60;99.90
11079;DHT22;5592;49.234;7.268;2022-11-25T06:11:05;4.60;99.90
11079;DHT22;5592;49.234;7.268;2022-11-25T06:13:30;4.70;99.90
11079;DHT22;5592;49.234;7.268;2022-11-25T06:15:56;4.80;99.90
11079;DHT22;5592;49.234;7.268;2022-11-25T06:18:22;4.80;99.90
11079;DHT22;5592;49.234;7.268;2022-11-25T06:20:56;4.80;99.90
11079;DHT22;5592;49.234;7.268;2022-11-25T06:23:22;4.80;99.90
11079;DHT22;5592;49.234;7.268;2022-11-25T06:25:48;4.70;99.90
11079;DHT22;5592;49.234;7.268;2022-11-25T06:28:18;4.80;99.90
11079;DHT22;5592;49.234;7.268;2022-11-25T06:30:44;4.80;99.90
11079;DHT22;5592;49.234;7.268;2022-11-25T06:33:09;4.80;99.90
11079;DHT22;5592;49.234;7.268;2022-11-25T06:35:35;4.80;99.90
11079;DHT22;5592;49.234;7.268;2022-11-25T06:38:04;5.00;99.90
11079;DHT22;5592;49.234;7.268;2022-11-25T06:40:29;5.00;99.90
11079;DHT22;5592;49.234;7.268;2022-11-25T06:42:55;5.00;99.90
11079;DHT22;5592;49.234;7.268;2022-11-25T06:45:20;5.10;99.90
11079;DHT22;5592;49.234;7.268;2022-11-25T06:47:46;5.10;99.90
11079;DHT22;5592;49.234;7.268;2022-11-25T06:50:11;5.30;99.90
11079;DHT22;5592;49.234;7.268;2022-11-25T06:52:37;5.30;99.90
11079;DHT22;5592;49.234;7.268;2022-11-25T06:55:04;5.30;99.90
11079;DHT22;5592;49.234;7.268;2022-11-25T06:57:30;5.40;99.90
11079;DHT22;5592;49.234;7.268;2022-11-25T06:59:55;5.50;99.90
11079;DHT22;5592;49.234;7.268;2022-11-25T07:02:21;5.50;99.90
11079;DHT22;5592;49.234;7.268;2022-11-25T07:04:47;5.70;99.90
11079;DHT22;5592;49.234;7.268;2022-11-25T07:07:13;5.70;99.90
11079;DHT22;5592;49.234;7.268;2022-11-25T07:09:39;5.80;99.90
11079;DHT22;5592;49.234;7.268;2022-11-25T07:12:05;5.90;99.90
11079;DHT22;5592;49.234;7.268;2022-11-25T07:14:30;6.10;99.90
11079;DHT22;5592;49.234;7.268;2022-11-25T07:16:56;6.00;99.90
11079;DHT22;5592;49.234;7.268;2022-11-25T07:19:22;6.00;99.90
11079;DHT22;5592;49.234;7.268;2022-11-25T07:21:47;6.00;99.90
11079;DHT22;5592;49.234;7.268;2022-11-25T07:24:16;6.10;99.90
11079;DHT22;5592;49.234;7.268;2022-11-25T07:26:44;6.10;99.90
11079;DHT22;5592;49.234;7.268;2022-11-25T07:29:14;6.10;99.90
11079;DHT22;5592;49.234;7.268;2022-11-25T07:31:42;6.10;99.90
11079;DHT22;5592;49.234;7.268;2022-11-25T07:34:18;6.20;99.90
11079;DHT22;5592;49.234;7.268;2022-11-25T07:36:46;6.30;99.90
11079;DHT22;5592;49.234;7.268;2022-11-25T07:39:15;6.40;99.90
11079;DHT22;5592;49.234;7.268;2022-11-25T07:41:41;6.50;99.90
11079;DHT22;5592;49.234;7.268;2022-11-25T07:44:08;6.50;99.90
11079;DHT22;5592;49.234;7.268;2022-11-25T07:46:39;6.50;99.90
11079;DHT22;5592;49.234;7.268;2022-11-25T07:49:07;6.60;99.90
11079;DHT22;5592;49.234;7.268;2022-11-25T07:51:39;6.70;99.90
11079;DHT22;5592;49.234;7.268;2022-11-25T07:54:07;6.80;99.90
11079;DHT22;5592;49.234;7.268;2022-11-25T07:56:35;6.90;99.90
11079;DHT22;5592;49.234;7.268;2022-11-25T07:59:02;6.90;99.90
11079;DHT22;5592;49.234;7.268;2022-11-25T08:01:28;6.90;99.90
11079;DHT22;5592;49.234;7.268;2022-11-25T08:03:53;7.00;99.90
11079;DHT22;5592;49.234;7.268;2022-11-25T08:06:22;7.00;99.90
11079;DHT22;5592;49.234;7.268;2022-11-25T08:08:52;7.00;99.90
11079;DHT22;5592;49.234;7.268;2022-11-25T08:11:22;7.10;99.90
11079;DHT22;5592;49.234;7.268;2022-11-25T08:13:49;7.30;99.90
11079;DHT22;5592;49.234;7.268;2022-11-25T08:16:17;7.40;99.90
11079;DHT22;5592;49.234;7.268;2022-11-25T08:18:43;7.50;99.90
11079;DHT22;5592;49.234;7.268;2022-11-25T08:21:10;7.60;99.90
11079;DHT22;5592;49.234;7.268;2022-11-25T08:23:38;7.60;99.90
11079;DHT22;5592;49.234;7.268;2022-11-25T08:26:12;7.50;99.90
11079;DHT22;5592;49.234;7.268;2022-11-25T08:28:39;7.60;99.90
11079;DHT22;5592;49.234;7.268;2022-11-25T08:31:29;7.60;99.90
11079;DHT22;5592;49.234;7.268;2022-11-25T08:33:59;7.60;99.90
11079;DHT22;5592;49.234;7.268;2022-11-25T08:36:26;7.60;99.90
11079;DHT22;5592;49.234;7.268;2022-11-25T08:38:54;7.70;99.90
11079;DHT22;5592;49.234;7.268;2022-11-25T08:41:24;7.70;99.90
11079;DHT22;5592;49.234;7.268;2022-11-25T08:43:50;7.70;99.90
11079;DHT22;5592;49.234;7.268;2022-11-25T08:46:20;7.80;99.90
11079;DHT22;5592;49.234;7.268;2022-11-25T08:48:46;7.80;99.90
11079;DHT22;5592;49.234;7.268;2022-11-25T08:51:21;7.90;99.90
11079;DHT22;5592;49.234;7.268;2022-11-25T08:53:48;8.00;99.90
11079;DHT22;5592;49.234;7.268;2022-11-25T08:56:17;8.10;99.90
11079;DHT22;5592;49.234;7.268;2022-11-25T08:58:43;8.10;99.90
11079;DHT22;5592;49.234;7.268;2022-11-25T09:01:10;8.10;99.90
11079;DHT22;5592;49.234;7.268;2022-11-25T09:03:40;8.10;99.90
11079;DHT22;5592;49.234;7.268;2022-11-25T09:06:07;8.10;99.90
11079;DHT22;5592;49.234;7.268;2022-11-25T09:08:33;8.00;99.90
11079;DHT22;5592;49.234;7.268;2022-11-25T09:10:59;8.00;99.90
11079;DHT22;5592;49.234;7.268;2022-11-25T09:13:25;8.10;99.90
11079;DHT22;5592;49.234;7.268;2022-11-25T09:15:50;8.10;99.90
11079;DHT22;5592;49.234;7.268;2022-11-25T09:18:16;8.10;99.90
11079;DHT22;5592;49.234;7.268;2022-11-25T09:20:45;8.30;99.90
11079;DHT22;5592;49.234;7.268;2022-11-25T09:23:11;8.30;99.90
11079;DHT22;5592;49.234;7.268;2022-11-25T09:25:37;8.50;99.90
11079;DHT22;5592;49.234;7.268;2022-11-25T09:28:03;8.70;99.90
11079;DHT22;5592;49.234;7.268;2022-11-25T09:30:30;8.90;99.90
11079;DHT22;5592;49.234;7.268;2022-11-25T09:32:56;9.00;99.90
11079;DHT22;5592;49.234;7.268;2022-11-25T09:35:23;9.10;99.90
11079;DHT22;5592;49.234;7.268;2022-11-25T09:37:49;9.20;99.90
11079;DHT22;5592;49.234;7.268;2022-11-25T09:40:26;9.30;99.90
11079;DHT22;5592;49.234;7.268;2022-11-25T09:46:02;9.40;99.90
11079;DHT22;5592;49.234;7.268;2022-11-25T09:55:18;9.70;99.90
11079;DHT22;5592;49.234;7.268;2022-11-25T10:00:43;10.10;99.90
11079;DHT22;5592;49.234;7.268;2022-11-25T10:03:44;10.30;99.90
11079;DHT22;5592;49.234;7.268;2022-11-25T10:06:24;10.50;99.90
11079;DHT22;5592;49.234;7.268;2022-11-25T10:08:55;10.80;99.90
11079;DHT22;5592;49.234;7.268;2022-11-25T10:11:28;10.90;99.90
11079;DHT22;5592;49.234;7.268;2022-11-25T10:14:02;10.90;99.90
11079;DHT22;5592;49.234;7.268;2022-11-25T10:21:56;11.40;99.90
11079;DHT22;5592;49.234;7.268;2022-11-25T10:24:22;11.40;99.90
11079;DHT22;5592;49.234;7.268;2022-11-25T10:26:57;11.30;99.90
11079;DHT22;5592;49.234;7.268;2022-11-25T10:29:28;11.40;99.90
11079;DHT22;5592;49.234;7.268;2022-11-25T10:32:23;11.60;99.90
11079;DHT22;5592;49.234;7.268;2022-11-25T10:34:56;11.70;99.90
11079;DHT22;5592;49.234;7.268;2022-11-25T10:37:29;11.80;99.90
11079;DHT22;5592;49.234;7.268;2022-11-25T10:39:56;11.60;99.90
11079;DHT22;5592;49.234;7.268;2022-11-25T10:42:27;11.90;99.90
11079;DHT22;5592;49.234;7.268;2022-11-25T10:44:53;12.60;99.90
11079;DHT22;5592;49.234;7.268;2022-11-25T10:50:10;13.60;99.90
11079;DHT22;5592;49.234;7.268;2022-11-25T10:52:49;13.50;99.90
11079;DHT22;5592;49.234;7.268;2022-11-25T10:55:22;12.90;99.90
11079;DHT22;5592;49.234;7.268;2022-11-25T10:57:52;12.10;99.90
11079;DHT22;5592;49.234;7.268;2022-11-25T11:00:36;11.70;99.90
11079;DHT22;5592;49.234;7.268;2022-11-25T11:03:14;11.50;99.90
11079;DHT22;5592;49.234;7.268;2022-11-25T11:05:48;11.40;99.90
11079;DHT22;5592;49.234;7.268;2022-11-25T11:08:18;11.30;99.90
11079;DHT22;5592;49.234;7.268;2022-11-25T11:10:45;11.30;99.90
11079;DHT22;5592;49.234;7.268;2022-11-25T11:13:24;11.50;99.90
11079;DHT22;5592;49.234;7.268;2022-11-25T11:15:53;11.50;99.90
11079;DHT22;5592;49.234;7.268;2022-11-25T11:21:05;12.10;99.90
11079;DHT22;5592;49.234;7.268;2022-11-25T11:23:54;12.10;99.90
11079;DHT22;5592;49.234;7.268;2022-11-25T11:29:14;12.00;99.90
11079;DHT22;5592;49.234;7.268;2022-11-25T11:31:48;11.70;99.90
11079;DHT22;5592;49.234;7.268;2022-11-25T11:34:37;11.60;99.90
11079;DHT22;5592;49.234;7.268;2022-11-25T11:40:02;11.20;99.90
11079;DHT22;5592;49.234;7.268;2022-11-25T11:42:57;11.30;99.90
11079;DHT22;5592;49.234;7.268;2022-11-25T11:48:44;10.90;99.90
11079;DHT22;5592;49.234;7.268;2022-11-25T11:51:25;10.80;99.90
11079;DHT22;5592;49.234;7.268;2022-11-25T11:54:03;10.80;99.90
11079;DHT22;5592;49.234;7.268;2022-11-25T12:04:25;11.30;99.90
11079;DHT22;5592;49.234;7.268;2022-11-25T12:07:06;11.50;99.90
11079;DHT22;5592;49.234;7.268;2022-11-25T12:09:37;11.70;99.90
11079;DHT22;5592;49.234;7.268;2022-11-25T12:12:12;11.70;99.90
11079;DHT22;5592;49.234;7.268;2022-11-25T12:14:50;11.70;99.90
11079;DHT22;5592;49.234;7.268;2022-11-25T12:17:59;11.70;99.90
11079;DHT22;5592;49.234;7.268;2022-11-25T12:23:05;11.90;99.90
11079;DHT22;5592;49.234;7.268;2022-11-25T12:25:37;12.00;99.90
11079;DHT22;5592;49.234;7.268;2022-11-25T12:33:51;12.30;99.90
11079;DHT22;5592;49.234;7.268;2022-11-25T12:36:21;12.20;99.90
11079;DHT22;5592;49.234;7.268;2022-11-25T12:38:56;12.10;99.90
11079;DHT22;5592;49.234;7.268;2022-11-25T12:41:53;12.10;99.90
11079;DHT22;5592;49.234;7.268;2022-11-25T12:46:57;12.00;99.90
11079;DHT22;5592;49.234;7.268;2022-11-25T12:49:33;11.80;99.90
11079;DHT22;5592;49.234;7.268;2022-11-25T13:00:23;11.80;99.90
11079;DHT22;5592;49.234;7.268;2022-11-25T13:11:46;11.70;99.90
11079;DHT22;5592;49.234;7.268;2022-11-25T13:14:53;11.60;99.90
11079;DHT22;5592;49.234;7.268;2022-11-25T13:17:23;11.50;99.90
11079;DHT22;5592;49.234;7.268;2022-11-25T13:19:49;11.40;99.90
11079;DHT22;5592;49.234;7.268;2022-11-25T13:22:34;11.30;99.90
11079;DHT22;5592;49.234;7.268;2022-11-25T13:25:00;11.20;99.90
11079;DHT22;5592;49.234;7.268;2022-11-25T13:38:56;11.40;99.90
11079;DHT22;5592;49.234;7.268;2022-11-25T13:41:34;11.40;99.90
11079;DHT22;5592;49.234;7.268;2022-11-25T13:46:52;11.40;99.90
11079;DHT22;5592;49.234;7.268;2022-11-25T13:49:43;11.40;99.90
11079;DHT22;5592;49.234;7.268;2022-11-25T13:54:48;11.50;99.90
11079;DHT22;5592;49.234;7.268;2022-11-25T13:57:26;11.40;99.90
11079;DHT22;5592;49.234;7.268;2022-11-25T14:02:33;11.30;99.90
11079;DHT22;5592;49.234;7.268;2022-11-25T14:10:43;11.20;99.90
11079;DHT22;5592;49.234;7.268;2022-11-25T14:13:23;11.10;99.90
11079;DHT22;5592;49.234;7.268;2022-11-25T14:24:42;11.00;99.90
11079;DHT22;5592;49.234;7.268;2022-11-25T14:27:26;11.00;99.90
11079;DHT22;5592;49.234;7.268;2022-11-25T14:29:59;10.90;99.90
11079;DHT22;5592;49.234;7.268;2022-11-25T14:35:19;10.50;99.90
11079;DHT22;5592;49.234;7.268;2022-11-25T14:38:02;10.30;99.90
11079;DHT22;5592;49.234;7.268;2022-11-25T14:43:23;10.00;99.90
11079;DHT22;5592;49.234;7.268;2022-11-25T14:46:12;9.90;99.90
11079;DHT22;5592;49.234;7.268;2022-11-25T14:48:40;9.80;99.90
11079;DHT22;5592;49.234;7.268;2022-11-25T14:51:08;9.70;99.90
11079;DHT22;5592;49.234;7.268;2022-11-25T14:53:44;9.70;99.90
11079;DHT22;5592;49.234;7.268;2022-11-25T14:56:12;9.60;99.90
11079;DHT22;5592;49.234;7.268;2022-11-25T14:58:40;9.50;99.90
11079;DHT22;5592;49.234;7.268;2022-11-25T15:01:16;9.40;99.90
11079;DHT22;5592;49.234;7.268;2022-11-25T15:03:48;9.30;99.90
11079;DHT22;5592;49.234;7.268;2022-11-25T15:06:15;9.20;99.90
11079;DHT22;5592;49.234;7.268;2022-11-25T15:08:45;9.10;99.90
11079;DHT22;5592;49.234;7.268;2022-11-25T15:11:21;9.10;99.90
11079;DHT22;5592;49.234;7.268;2022-11-25T15:16:29;8.90;99.90
11079;DHT22;5592;49.234;7.268;2022-11-25T15:18:58;8.80;99.90
11079;DHT22;5592;49.234;7.268;2022-11-25T15:21:35;8.80;99.90
11079;DHT22;5592;49.234;7.268;2022-11-25T15:24:02;8.70;99.90
11079;DHT22;5592;49.234;7.268;2022-11-25T15:26:33;8.50;99.90
11079;DHT22;5592;49.234;7.268;2022-11-25T15:29:03;8.40;99.90
11079;DHT22;5592;49.234;7.268;2022-11-25T15:31:34;8.20;99.90
11079;DHT22;5592;49.234;7.268;2022-11-25T15:34:03;8.10;99.90
11079;DHT22;5592;49.234;7.268;2022-11-25T15:36:32;8.00;99.90
11079;DHT22;5592;49.234;7.268;2022-11-25T15:42:02;7.80;99.90
11079;DHT22;5592;49.234;7.268;2022-11-25T15:44:33;7.70;99.90
11079;DHT22;5592;49.234;7.268;2022-11-25T15:49:39;7.40;99.90
11079;DHT22;5592;49.234;7.268;2022-11-25T15:52:12;7.30;99.90
11079;DHT22;5592;49.234;7.268;2022-11-25T15:54:50;7.20;99.90
11079;DHT22;5592;49.234;7.268;2022-11-25T16:00:00;7.10;99.90
11079;DHT22;5592;49.234;7.268;2022-11-25T16:10:24;6.90;99.90
11079;DHT22;5592;49.234;7.268;2022-11-25T16:18:16;6.90;99.90
11079;DHT22;5592;49.234;7.268;2022-11-25T16:20:49;6.90;99.90
11079;DHT22;5592;49.234;7.268;2022-11-25T16:23:16;6.80;99.90
11079;DHT22;5592;49.234;7.268;2022-11-25T16:28:21;6.70;99.90
11079;DHT22;5592;49.234;7.268;2022-11-25T16:30:48;6.70;99.90
11079;DHT22;5592;49.234;7.268;2022-11-25T16:33:14;6.60;99.90
11079;DHT22;5592;49.234;7.268;2022-11-25T16:35:42;6.60;99.90
11079;DHT22;5592;49.234;7.268;2022-11-25T16:38:11;6.50;99.90
11079;DHT22;5592;49.234;7.268;2022-11-25T16:40:37;6.50;99.90
11079;DHT22;5592;49.234;7.268;2022-11-25T16:43:06;6.40;99.90
11079;DHT22;5592;49.234;7.268;2022-11-25T16:45:38;6.30;99.90
11079;DHT22;5592;49.234;7.268;2022-11-25T16:48:14;6.20;99.90
11079;DHT22;5592;49.234;7.268;2022-11-25T16:50:40;6.20;99.90
11079;DHT22;5592;49.234;7.268;2022-11-25T16:53:06;6.10;99.90
11079;DHT22;5592;49.234;7.268;2022-11-25T16:55:31;6.00;99.90
11079;DHT22;5592;49.234;7.268;2022-11-25T16:57:57;6.10;99.90
11079;DHT22;5592;49.234;7.268;2022-11-25T17:00:23;6.10;99.90
11079;DHT22;5592;49.234;7.268;2022-11-25T17:02:48;6.30;99.90
11079;DHT22;5592;49.234;7.268;2022-11-25T17:05:22;6.20;99.90
11079;DHT22;5592;49.234;7.268;2022-11-25T17:07:48;6.10;99.90
11079;DHT22;5592;49.234;7.268;2022-11-25T17:10:14;6.00;99.90
11079;DHT22;5592;49.234;7.268;2022-11-25T17:12:41;5.80;99.90
11079;DHT22;5592;49.234;7.268;2022-11-25T17:15:17;5.60;99.90
11079;DHT22;5592;49.234;7.268;2022-11-25T17:17:43;5.40;99.90
11079;DHT22;5592;49.234;7.268;2022-11-25T17:20:20;5.30;99.90
11079;DHT22;5592;49.234;7.268;2022-11-25T17:22:49;5.10;99.90
11079;DHT22;5592;49.234;7.268;2022-11-25T17:25:15;5.00;99.90
11079;DHT22;5592;49.234;7.268;2022-11-25T17:27:41;5.10;99.90
11079;DHT22;5592;49.234;7.268;2022-11-25T17:32:40;4.90;99.90
11079;DHT22;5592;49.234;7.268;2022-11-25T17:35:24;4.80;99.90
11079;DHT22;5592;49.234;7.268;2022-11-25T17:37:52;4.70;99.90
11079;DHT22;5592;49.234;7.268;2022-11-25T17:40:18;4.60;99.90
11079;DHT22;5592;49.234;7.268;2022-11-25T17:42:45;4.50;99.90
11079;DHT22;5592;49.234;7.268;2022-11-25T17:45:15;4.50;99.90
11079;DHT22;5592;49.234;7.268;2022-11-25T17:47:42;4.40;99.90
11079;DHT22;5592;49.234;7.268;2022-11-25T17:50:18;4.30;99.90
11079;DHT22;5592;49.234;7.268;2022-11-25T17:52:44;4.20;99.90
11079;DHT22;5592;49.234;7.268;2022-11-25T17:55:12;4.20;99.90
11079;DHT22;5592;49.234;7.268;2022-11-25T17:57:41;4.10;99.90
11079;DHT22;5592;49.234;7.268;2022-11-25T18:00:11;4.00;99.90
11079;DHT22;5592;49.234;7.268;2022-11-25T18:02:38;3.90;99.90
11079;DHT22;5592;49.234;7.268;2022-11-25T18:05:14;3.80;99.90
11079;DHT22;5592;49.234;7.268;2022-11-25T18:07:44;3.70;99.90
11079;DHT22;5592;49.234;7.268;2022-11-25T18:10:12;3.70;99.90
11079;DHT22;5592;49.234;7.268;2022-11-25T18:12:38;3.70;99.90
11079;DHT22;5592;49.234;7.268;2022-11-25T18:15:04;3.80;99.90
11079;DHT22;5592;49.234;7.268;2022-11-25T18:17:35;3.80;99.90
11079;DHT22;5592;49.234;7.268;2022-11-25T18:20:21;3.80;99.90
11079;DHT22;5592;49.234;7.268;2022-11-25T18:22:47;4.00;99.90
11079;DHT22;5592;49.234;7.268;2022-11-25T18:25:21;4.20;99.90
11079;DHT22;5592;49.234;7.268;2022-11-25T18:27:51;4.30;99.90
11079;DHT22;5592;49.234;7.268;2022-11-25T18:30:23;4.30;99.90
11079;DHT22;5592;49.234;7.268;2022-11-25T18:32:51;4.40;99.90
11079;DHT22;5592;49.234;7.268;2022-11-25T18:35:20;4.50;99.90